Time;durP1;ratioP1;P1;durP2;ratioP2;P2;SDS_P1;SDS_P2;PMS_P1;PMS_P2;Temp;Humidity;BMP_temperature;BMP_pressure;BME280_temperature;BME280_humidity;BME280_pressure;Samples;Min_cycle;Max_cycle;Signal;HPM_P1;HPM_P2
2022/07/03 00:00:37;;;;;;;5.85;5.45;;;23.40;63.30;;;;;;5021043;28;20703;-84
2022/07/03 00:03:02;;;;;;;5.75;5.45;;;23.30;63.20;;;;;;5003091;28;20554;-84
2022/07/03 00:05:28;;;;;;;6.05;5.65;;;23.20;64.30;;;;;;5024750;28;20197;-91
2022/07/03 00:07:54;;;;;;;5.55;5.25;;;23.10;64.50;;;;;;5029204;28;20213;-91
2022/07/03 00:10:19;;;;;;;5.50;5.18;;;23.10;64.20;;;;;;4999000;28;20325;-87
2022/07/03 00:12:45;;;;;;;5.80;5.40;;;23.10;64.30;;;;;;5021398;28;20206;-84
2022/07/03 00:15:11;;;;;;;5.32;5.05;;;23.10;64.40;;;;;;5016154;28;20178;-85
2022/07/03 00:17:38;;;;;;;5.65;5.25;;;23.00;64.70;;;;;;5015476;28;20222;-86
2022/07/03 00:20:04;;;;;;;5.55;5.25;;;23.00;64.50;;;;;;5006980;28;20193;-84
2022/07/03 00:22:33;;;;;;;5.13;4.82;;;23.10;64.10;;;;;;4997528;28;20492;-84
2022/07/03 00:25:06;;;;;;;5.65;5.35;;;23.10;64.40;;;;;;5020574;28;20193;-85
2022/07/03 00:27:33;;;;;;;6.32;5.80;;;23.10;64.00;;;;;;5016457;28;20209;-85
2022/07/03 00:30:00;;;;;;;5.97;5.55;;;23.10;63.80;;;;;;5016133;28;20204;-84
2022/07/03 00:32:27;;;;;;;6.95;6.55;;;23.10;63.80;;;;;;4999766;28;20214;-85
2022/07/03 00:34:55;;;;;;;5.93;5.63;;;23.00;64.20;;;;;;5011624;28;20696;-84
2022/07/03 00:37:22;;;;;;;6.82;6.35;;;23.00;64.50;;;;;;5008439;28;20186;-84
2022/07/03 00:39:49;;;;;;;6.38;6.03;;;22.90;64.50;;;;;;5008780;28;20193;-85
2022/07/03 00:42:15;;;;;;;6.72;6.22;;;23.00;64.60;;;;;;5000368;28;20221;-87
2022/07/03 00:44:56;;;;;;;6.60;5.97;;;23.00;64.30;;;;;;5007660;28;20293;-85
2022/07/03 00:47:23;;;;;;;6.68;6.10;;;23.10;64.10;;;;;;4992036;28;20711;-84
2022/07/03 00:49:51;;;;;;;5.97;5.50;;;22.90;64.30;;;;;;5015352;28;20205;-84
2022/07/03 00:52:19;;;;;;;6.47;5.95;;;22.90;65.10;;;;;;4990576;28;20189;-85
2022/07/03 00:54:55;;;;;;;6.43;6.03;;;22.80;65.60;;;;;;5019753;28;20283;-87
2022/07/03 00:57:23;;;;;;;6.75;6.35;;;22.70;65.70;;;;;;5014999;28;20240;-86
2022/07/03 00:59:50;;;;;;;6.63;6.13;;;22.70;66.10;;;;;;5001219;28;20185;-85
2022/07/03 01:02:50;;;;;;;6.55;6.15;;;22.80;65.90;;;;;;5007256;28;20617;-84
2022/07/03 01:05:36;;;;;;;6.65;6.25;;;22.80;65.60;;;;;;4995108;28;20209;-84
2022/07/03 01:08:18;;;;;;;6.93;6.32;;;22.80;65.70;;;;;;5001847;28;20221;-85
2022/07/03 01:11:19;;;;;;;6.40;6.03;;;22.80;65.90;;;;;;5018937;28;20253;-85
2022/07/03 01:14:10;;;;;;;6.30;5.95;;;22.60;66.50;;;;;;5006849;28;20232;-85
2022/07/03 01:16:58;;;;;;;6.40;5.82;;;22.60;66.30;;;;;;5020411;28;20244;-87
2022/07/03 01:19:32;;;;;;;7.03;6.60;;;22.70;65.50;;;;;;5015903;28;20604;-87
2022/07/03 01:22:35;;;;;;;6.80;6.35;;;22.70;65.50;;;;;;5012135;28;20186;-84
2022/07/03 01:25:16;;;;;;;5.90;5.53;;;22.80;65.00;;;;;;5018433;28;20243;-86
2022/07/03 01:28:00;;;;;;;6.22;5.93;;;22.60;65.50;;;;;;5019041;28;20304;-87
2022/07/03 01:30:36;;;;;;;6.47;5.97;;;22.50;66.20;;;;;;4991561;28;20734;-85
2022/07/03 01:33:08;;;;;;;5.78;5.47;;;22.50;66.20;;;;;;5016101;28;20682;-84
2022/07/03 01:35:41;;;;;;;5.57;5.28;;;22.50;65.60;;;;;;5019007;28;20185;-85
2022/07/03 01:38:11;;;;;;;6.32;5.97;;;22.40;66.40;;;;;;5019836;28;20181;-85
2022/07/03 01:40:39;;;;;;;6.43;5.82;;;22.40;65.50;;;;;;4997511;28;20189;-85
2022/07/03 01:43:09;;;;;;;9.05;6.22;;;22.40;65.40;;;;;;5020201;28;20216;-85
2022/07/03 01:45:55;;;;;;;6.15;5.68;;;22.40;65.50;;;;;;5019618;28;20232;-84
2022/07/03 01:48:24;;;;;;;6.40;5.90;;;22.30;65.90;;;;;;5015265;28;20251;-86
2022/07/03 01:50:50;;;;;;;6.07;5.68;;;22.30;66.20;;;;;;5007899;28;20202;-86
2022/07/03 01:53:17;;;;;;;6.10;5.70;;;22.20;66.40;;;;;;5015797;28;20237;-88
2022/07/03 01:55:43;;;;;;;6.15;5.65;;;22.30;66.00;;;;;;5017205;28;20190;-88
2022/07/03 01:58:10;;;;;;;6.70;6.13;;;22.30;65.70;;;;;;5010207;28;20239;-86
2022/07/03 02:00:41;;;;;;;6.03;5.63;;;22.20;66.90;;;;;;5009566;28;20504;-84
2022/07/03 02:03:07;;;;;;;5.93;5.63;;;22.10;67.00;;;;;;5005625;28;20237;-83
2022/07/03 02:05:38;;;;;;;6.20;5.90;;;21.90;67.60;;;;;;5014961;28;20668;-86
2022/07/03 02:08:23;;;;;;;6.20;5.80;;;21.90;67.80;;;;;;5000594;28;20301;-83
2022/07/03 02:11:11;;;;;;;5.55;5.25;;;21.90;68.10;;;;;;5007802;28;20185;-86
2022/07/03 02:14:13;;;;;;;5.50;5.20;;;21.80;67.90;;;;;;4982803;28;20222;-86
2022/07/03 02:17:14;;;;;;;5.72;5.43;;;21.90;67.70;;;;;;5022071;28;20181;-84
2022/07/03 02:20:03;;;;;;;5.63;5.22;;;21.90;67.90;;;;;;4988622;28;20287;-84
2022/07/03 02:22:41;;;;;;;6.13;5.82;;;21.90;67.40;;;;;;5003910;28;20221;-85
2022/07/03 02:25:15;;;;;;;6.13;5.82;;;21.90;67.10;;;;;;4987682;28;20203;-86
2022/07/03 02:27:50;;;;;;;5.88;5.57;;;21.90;66.90;;;;;;5018197;28;20209;-84
2022/07/03 02:30:17;;;;;;;6.00;5.70;;;21.80;67.70;;;;;;5013085;28;20181;-85
2022/07/03 02:32:48;;;;;;;5.68;5.38;;;21.70;67.90;;;;;;5013926;28;20334;-84
2022/07/03 02:35:31;;;;;;;5.82;5.43;;;21.70;67.70;;;;;;5021604;28;20177;-85
2022/07/03 02:38:19;;;;;;;6.00;5.60;;;21.50;68.70;;;;;;5018323;28;20198;-85
2022/07/03 02:40:48;;;;;;;6.18;5.78;;;21.40;69.10;;;;;;5015283;28;20541;-84
2022/07/03 02:43:28;;;;;;;6.25;5.75;;;21.30;70.00;;;;;;5013876;28;20264;-84
2022/07/03 02:48:54;;;;;;;5.88;5.50;;;21.30;70.00;;;;;;5015591;28;20268;-84
2022/07/03 02:51:23;;;;;;;6.10;5.80;;;21.30;70.00;;;;;;5005681;28;20214;-83
2022/07/03 02:54:01;;;;;;;6.72;6.13;;;21.40;69.00;;;;;;5038031;28;20201;-83
2022/07/03 02:56:56;;;;;;;6.03;5.72;;;21.50;69.00;;;;;;5012695;28;20264;-84
2022/07/03 02:59:30;;;;;;;5.78;5.47;;;21.50;68.90;;;;;;5012094;28;20200;-84
2022/07/03 03:02:13;;;;;;;5.95;5.55;;;21.50;68.80;;;;;;5014437;28;20214;-85
2022/07/03 03:04:43;;;;;;;6.28;5.85;;;21.60;67.90;;;;;;5018730;28;20206;-84
2022/07/03 03:07:16;;;;;;;5.97;5.68;;;21.60;67.70;;;;;;5001221;28;20213;-84
2022/07/03 03:09:44;;;;;;;6.03;5.72;;;21.50;68.50;;;;;;5015182;28;20380;-84
2022/07/03 03:12:11;;;;;;;6.38;6.05;;;21.50;68.40;;;;;;4997610;28;20187;-84
2022/07/03 03:14:41;;;;;;;6.28;5.75;;;21.50;68.00;;;;;;5013944;28;20688;-84
2022/07/03 03:17:20;;;;;;;5.88;5.50;;;21.50;68.00;;;;;;5008662;28;20186;-84
2022/07/03 03:19:48;;;;;;;5.70;5.40;;;21.50;68.10;;;;;;5013115;28;20190;-84
2022/07/03 03:22:47;;;;;;;6.18;5.78;;;21.40;68.30;;;;;;5013957;28;20185;-84
2022/07/03 03:25:13;;;;;;;5.72;5.35;;;21.30;68.90;;;;;;5017786;28;20229;-84
2022/07/03 03:27:39;;;;;;;5.85;5.45;;;21.20;69.10;;;;;;5010575;28;20305;-84
2022/07/03 03:30:06;;;;;;;5.95;5.55;;;21.20;69.20;;;;;;5002951;28;20703;-85
2022/07/03 03:32:35;;;;;;;6.03;5.72;;;21.10;70.10;;;;;;5016227;28;20183;-84
2022/07/03 03:35:01;;;;;;;5.95;5.57;;;21.00;70.80;;;;;;5013970;28;20537;-85
2022/07/03 03:37:27;;;;;;;5.90;5.60;;;20.90;72.00;;;;;;5019569;28;20200;-85
2022/07/03 03:39:53;;;;;;;5.75;5.32;;;20.80;71.90;;;;;;4997634;28;20200;-85
2022/07/03 03:42:18;;;;;;;6.53;5.60;;;20.80;71.80;;;;;;5014340;28;20200;-84
2022/07/03 03:44:44;;;;;;;5.78;5.47;;;20.70;72.30;;;;;;5010743;28;20220;-85
2022/07/03 03:47:10;;;;;;;5.85;5.45;;;20.70;72.60;;;;;;5015506;28;20220;-84
2022/07/03 03:49:36;;;;;;;6.00;5.68;;;20.80;71.80;;;;;;5028942;28;20218;-84
2022/07/03 03:52:02;;;;;;;6.45;5.85;;;20.80;71.80;;;;;;5031646;28;20423;-83
2022/07/03 03:54:28;;;;;;;6.03;5.43;;;20.80;71.50;;;;;;5001591;28;20221;-84
2022/07/03 03:56:53;;;;;;;6.32;5.93;;;20.90;71.20;;;;;;5014157;28;20192;-84
2022/07/03 03:59:19;;;;;;;6.18;5.88;;;20.90;71.00;;;;;;5013137;28;20293;-84
2022/07/03 04:01:46;;;;;;;6.35;5.88;;;21.00;70.60;;;;;;5013940;28;20197;-84
2022/07/03 04:04:12;;;;;;;6.45;6.03;;;20.90;70.80;;;;;;5012564;28;20200;-84
2022/07/03 04:06:38;;;;;;;5.63;5.32;;;20.90;70.60;;;;;;5009170;28;20210;-84
2022/07/03 04:09:03;;;;;;;6.40;5.90;;;21.00;70.40;;;;;;5013355;28;20232;-84
2022/07/03 04:11:29;;;;;;;6.15;5.65;;;21.10;70.20;;;;;;5013250;28;20193;-84
2022/07/03 04:13:55;;;;;;;6.03;5.72;;;21.10;70.00;;;;;;5014192;28;20742;-84
2022/07/03 04:16:20;;;;;;;5.60;5.30;;;21.10;69.80;;;;;;4995352;28;20268;-84
2022/07/03 04:18:46;;;;;;;6.85;5.53;;;21.00;70.10;;;;;;5012744;28;20198;-85
2022/07/03 04:21:11;;;;;;;6.20;5.80;;;21.00;70.10;;;;;;5015520;28;20193;-84
2022/07/03 04:23:37;;;;;;;5.82;5.53;;;20.90;71.80;;;;;;5015465;28;20259;-84
2022/07/03 04:26:06;;;;;;;5.93;5.60;;;20.60;73.00;;;;;;5014772;28;20232;-84
2022/07/03 04:28:32;;;;;;;5.85;5.45;;;20.50;73.90;;;;;;5014106;28;20197;-84
2022/07/03 04:30:58;;;;;;;5.43;5.07;;;20.40;74.30;;;;;;5007677;28;20203;-84
2022/07/03 04:33:24;;;;;;;5.78;5.47;;;20.40;75.20;;;;;;5024242;28;20215;-84
2022/07/03 04:35:49;;;;;;;5.80;5.32;;;20.40;75.80;;;;;;5011774;28;20192;-84
2022/07/03 04:38:15;;;;;;;5.78;5.38;;;20.40;76.60;;;;;;5016632;28;20228;-84
2022/07/03 04:40:41;;;;;;;5.68;5.38;;;20.30;77.00;;;;;;5014355;28;20196;-84
2022/07/03 04:43:07;;;;;;;5.55;5.22;;;20.30;77.40;;;;;;5021090;28;20216;-84
2022/07/03 04:45:32;;;;;;;5.72;5.43;;;20.40;77.40;;;;;;5012310;28;20202;-84
2022/07/03 04:47:58;;;;;;;5.75;5.32;;;20.40;77.20;;;;;;5001634;28;20224;-84
2022/07/03 04:50:24;;;;;;;5.50;5.10;;;20.30;78.50;;;;;;5016080;28;20196;-84
2022/07/03 04:52:49;;;;;;;5.90;5.40;;;20.40;78.00;;;;;;5013280;28;20223;-84
2022/07/03 04:55:15;;;;;;;6.00;5.70;;;20.30;79.10;;;;;;5015462;28;20235;-84
2022/07/03 04:57:41;;;;;;;6.70;6.40;;;20.10;80.20;;;;;;5010928;28;20262;-85
2022/07/03 05:00:07;;;;;;;6.95;5.95;;;20.00;82.10;;;;;;5011287;28;20734;-84
2022/07/03 05:02:34;;;;;;;6.78;6.22;;;19.90;82.90;;;;;;5016962;28;20211;-84
2022/07/03 05:04:59;;;;;;;6.25;5.95;;;19.90;84.10;;;;;;5009911;28;20186;-84
2022/07/03 05:07:25;;;;;;;6.20;5.60;;;19.70;85.60;;;;;;5017626;28;20726;-84
2022/07/03 05:09:51;;;;;;;5.57;5.28;;;19.70;86.20;;;;;;5012561;28;20546;-84
2022/07/03 05:12:16;;;;;;;5.85;5.43;;;19.70;87.30;;;;;;5012696;28;20268;-84
2022/07/03 05:14:42;;;;;;;5.05;4.75;;;19.70;87.80;;;;;;4994568;28;20206;-84
2022/07/03 05:17:08;;;;;;;5.65;5.32;;;19.70;88.20;;;;;;4999612;28;20194;-84
2022/07/03 05:19:33;;;;;;;5.55;5.25;;;19.60;89.50;;;;;;5010434;28;20582;-84
2022/07/03 05:21:59;;;;;;;5.70;5.25;;;19.60;89.50;;;;;;5013464;28;20618;-84
2022/07/03 05:24:24;;;;;;;5.55;5.25;;;19.60;90.10;;;;;;5009286;28;20717;-84
2022/07/03 05:26:51;;;;;;;5.20;4.90;;;19.60;90.50;;;;;;5011925;28;20701;-84
2022/07/03 05:29:16;;;;;;;5.47;5.07;;;19.60;90.60;;;;;;5023759;28;20243;-84
2022/07/03 05:31:42;;;;;;;5.68;5.22;;;19.60;90.30;;;;;;5012367;28;20193;-84
2022/07/03 05:34:08;;;;;;;5.75;5.20;;;19.60;91.30;;;;;;4997397;28;20213;-85
2022/07/03 05:36:33;;;;;;;5.45;5.15;;;19.60;90.90;;;;;;4993810;28;20186;-84
2022/07/03 05:41:43;;;;;;;5.40;5.10;;;19.80;90.60;;;;;;5031760;28;20203;-85
2022/07/03 05:44:09;;;;;;;6.00;5.63;;;19.80;90.70;;;;;;5013681;28;20261;-84
2022/07/03 05:46:35;;;;;;;5.85;5.20;;;19.80;90.00;;;;;;5011971;28;20427;-84
2022/07/03 05:49:00;;;;;;;5.93;5.63;;;19.90;90.70;;;;;;5011112;28;20247;-84
2022/07/03 05:51:26;;;;;;;5.47;5.18;;;19.90;90.80;;;;;;5021447;28;20197;-83
2022/07/03 05:53:52;;;;;;;5.95;5.45;;;19.90;90.20;;;;;;5016271;28;20210;-84
2022/07/03 05:56:21;;;;;;;5.53;5.22;;;20.00;90.00;;;;;;5020506;28;20192;-83
2022/07/03 05:58:46;;;;;;;6.15;5.78;;;20.10;90.00;;;;;;5017484;28;20189;-84
2022/07/03 06:01:12;;;;;;;5.40;5.10;;;20.20;89.80;;;;;;5017176;28;20191;-84
2022/07/03 06:03:38;;;;;;;5.32;5.03;;;20.30;87.90;;;;;;5017933;28;20212;-84
2022/07/03 06:06:03;;;;;;;5.63;5.32;;;20.30;88.70;;;;;;5021522;28;20198;-84
2022/07/03 06:08:29;;;;;;;6.55;5.57;;;20.40;88.70;;;;;;5021526;28;20253;-85
2022/07/03 06:10:55;;;;;;;5.70;5.20;;;20.40;86.50;;;;;;5016095;28;20190;-84
2022/07/03 06:13:21;;;;;;;5.85;5.55;;;20.60;88.00;;;;;;5015436;28;20205;-85
2022/07/03 06:15:47;;;;;;;5.60;5.20;;;20.80;86.40;;;;;;5012843;28;20189;-83
2022/07/03 06:18:12;;;;;;;6.30;5.80;;;20.70;85.20;;;;;;5018786;28;20252;-85
2022/07/03 06:20:38;;;;;;;5.40;5.10;;;20.90;84.50;;;;;;5016555;28;20198;-84
2022/07/03 06:23:03;;;;;;;5.50;5.00;;;20.90;84.10;;;;;;5016689;28;20264;-85
2022/07/03 06:25:29;;;;;;;5.50;5.10;;;21.10;83.10;;;;;;5030112;28;20560;-84
2022/07/03 06:27:55;;;;;;;6.00;5.60;;;21.10;83.70;;;;;;5016659;28;20222;-84
2022/07/03 06:30:21;;;;;;;5.97;5.68;;;21.30;82.30;;;;;;4999721;28;20643;-83
2022/07/03 06:32:46;;;;;;;5.85;5.32;;;21.50;80.10;;;;;;5020541;28;20183;-85
2022/07/03 06:35:15;;;;;;;5.82;5.53;;;21.60;79.10;;;;;;5022164;28;20191;-85
2022/07/03 06:37:40;;;;;;;5.55;5.25;;;21.60;78.20;;;;;;5014818;28;20293;-84
2022/07/03 06:40:07;;;;;;;5.35;5.05;;;21.70;79.40;;;;;;5017155;28;20217;-84
2022/07/03 06:42:33;;;;;;;5.40;5.00;;;21.90;78.80;;;;;;5001313;28;20197;-83
2022/07/03 06:44:58;;;;;;;5.30;5.00;;;22.10;76.50;;;;;;5009987;28;20200;-84
2022/07/03 06:47:24;;;;;;;5.20;4.90;;;22.20;75.40;;;;;;5020796;28;20724;-85
2022/07/03 06:49:50;;;;;;;4.93;4.60;;;22.30;73.70;;;;;;5017544;28;20192;-83
2022/07/03 06:52:15;;;;;;;5.70;5.40;;;22.30;73.80;;;;;;5014203;28;20180;-85
2022/07/03 06:54:43;;;;;;;5.05;4.85;;;22.30;74.50;;;;;;5001290;28;20220;-84
2022/07/03 06:57:10;;;;;;;4.75;4.55;;;22.30;73.90;;;;;;5012276;28;20190;-86
2022/07/03 06:59:35;;;;;;;5.15;4.75;;;22.50;71.30;;;;;;5017118;28;20201;-84
2022/07/03 07:02:02;;;;;;;4.90;4.68;;;22.60;68.80;;;;;;5014298;28;20187;-84
2022/07/03 07:04:27;;;;;;;4.70;4.40;;;22.70;69.80;;;;;;4997611;28;20719;-84
2022/07/03 07:06:53;;;;;;;4.70;4.50;;;22.80;67.50;;;;;;5015787;28;20213;-85
2022/07/03 07:09:19;;;;;;;4.93;4.63;;;22.80;66.80;;;;;;5018273;28;20198;-85
2022/07/03 07:11:44;;;;;;;4.57;4.18;;;22.80;68.00;;;;;;5013079;28;20280;-84
2022/07/03 07:14:10;;;;;;;4.45;4.15;;;23.00;65.90;;;;;;5023059;28;20220;-82
2022/07/03 07:16:36;;;;;;;4.95;4.70;;;23.10;67.60;;;;;;5017670;28;20193;-83
2022/07/03 07:19:01;;;;;;;4.68;4.47;;;23.10;65.50;;;;;;5012058;28;20201;-83
2022/07/03 07:21:30;;;;;;;4.60;4.30;;;23.20;65.20;;;;;;5023921;28;20256;-84
2022/07/03 07:23:55;;;;;;;4.22;4.03;;;23.20;65.00;;;;;;5018800;28;20244;-84
2022/07/03 07:26:21;;;;;;;4.75;4.45;;;23.30;61.10;;;;;;4999175;28;20327;-85
2022/07/03 07:28:47;;;;;;;5.18;4.88;;;23.50;63.10;;;;;;5028265;28;20193;-84
2022/07/03 07:31:12;;;;;;;4.47;4.28;;;23.60;59.50;;;;;;5033783;28;20186;-82
2022/07/03 07:33:38;;;;;;;4.93;4.53;;;23.60;60.40;;;;;;5033724;28;20205;-83
2022/07/03 07:36:04;;;;;;;4.85;4.55;;;23.70;60.10;;;;;;5001712;28;20514;-83
2022/07/03 07:38:30;;;;;;;4.90;4.63;;;23.70;60.00;;;;;;5026210;28;20710;-84
2022/07/03 07:40:57;;;;;;;4.40;4.20;;;23.70;59.00;;;;;;5003254;28;20194;-85
2022/07/03 07:43:22;;;;;;;4.45;4.25;;;23.80;59.90;;;;;;5017737;28;20342;-84
2022/07/03 07:45:48;;;;;;;5.05;4.78;;;23.90;60.00;;;;;;5001947;28;20213;-84
2022/07/03 07:48:14;;;;;;;5.10;4.90;;;24.00;58.40;;;;;;5020181;28;20215;-84
2022/07/03 07:50:40;;;;;;;4.55;4.35;;;24.20;59.70;;;;;;5014139;28;20182;-84
2022/07/03 07:53:06;;;;;;;4.78;4.47;;;24.20;58.10;;;;;;5017495;28;20653;-84
2022/07/03 07:55:31;;;;;;;5.35;4.95;;;24.30;59.00;;;;;;5022819;28;20201;-84
2022/07/03 07:57:57;;;;;;;5.13;4.72;;;24.60;58.10;;;;;;5018071;28;20221;-84
2022/07/03 08:00:23;;;;;;;5.30;4.88;;;24.70;55.00;;;;;;5014654;28;20186;-84
2022/07/03 08:05:37;;;;;;;5.18;4.88;;;24.70;54.10;;;;;;5014478;28;20248;-84
2022/07/03 08:08:09;;;;;;;5.28;4.97;;;24.70;54.70;;;;;;5020159;28;20249;-84
2022/07/03 08:10:48;;;;;;;5.47;5.18;;;24.70;56.30;;;;;;5018283;28;20240;-84
2022/07/03 08:13:19;;;;;;;6.35;5.85;;;24.70;56.80;;;;;;5014578;28;20210;-84
2022/07/03 08:15:47;;;;;;;5.38;5.07;;;24.80;56.80;;;;;;5015260;28;20174;-84
2022/07/03 08:18:13;;;;;;;5.57;5.28;;;25.00;56.40;;;;;;5031235;28;20184;-84
2022/07/03 08:20:39;;;;;;;5.80;5.47;;;25.00;55.50;;;;;;5013720;28;20189;-84
2022/07/03 08:23:05;;;;;;;6.07;5.57;;;25.10;58.40;;;;;;5013733;28;20253;-83
2022/07/03 08:25:31;;;;;;;5.57;5.32;;;25.00;54.90;;;;;;5020998;28;20174;-83
2022/07/03 08:27:58;;;;;;;4.82;4.63;;;25.00;53.90;;;;;;5011892;28;20255;-84
2022/07/03 08:30:24;;;;;;;5.00;4.60;;;25.00;53.00;;;;;;5015581;28;20193;-84
2022/07/03 08:32:55;;;;;;;4.68;4.38;;;25.20;54.00;;;;;;4998033;28;20459;-84
2022/07/03 08:35:21;;;;;;;4.30;4.10;;;25.40;52.30;;;;;;5007402;28;20190;-85
2022/07/03 08:37:47;;;;;;;4.47;4.28;;;25.50;51.00;;;;;;5009672;28;20248;-85
2022/07/03 08:40:14;;;;;;;4.15;3.85;;;25.60;51.60;;;;;;5011658;28;20185;-84
2022/07/03 08:42:53;;;;;;;4.95;4.55;;;25.60;49.70;;;;;;5012436;28;20272;-84
2022/07/03 08:45:20;;;;;;;4.70;4.40;;;25.50;52.10;;;;;;5012588;28;20186;-84
2022/07/03 08:47:48;;;;;;;5.15;4.20;;;25.90;47.70;;;;;;5009733;28;20220;-85
2022/07/03 08:50:15;;;;;;;4.40;4.20;;;26.00;47.60;;;;;;5010050;28;20201;-85
2022/07/03 08:52:42;;;;;;;5.00;4.57;;;26.10;47.40;;;;;;5012510;28;20186;-85
2022/07/03 08:55:09;;;;;;;5.15;4.85;;;26.10;46.70;;;;;;5011529;28;20177;-85
2022/07/03 08:57:40;;;;;;;5.07;4.85;;;26.30;47.70;;;;;;5010743;28;20201;-84
2022/07/03 09:00:11;;;;;;;5.72;5.43;;;26.50;46.10;;;;;;5009817;28;20177;-85
2022/07/03 09:02:43;;;;;;;5.88;5.57;;;26.70;48.40;;;;;;5010584;28;20549;-84
2022/07/03 09:05:12;;;;;;;6.72;6.32;;;26.80;46.70;;;;;;4999539;28;20280;-85
2022/07/03 09:07:40;;;;;;;6.53;6.18;;;26.90;46.00;;;;;;5009045;28;20349;-84
2022/07/03 09:10:11;;;;;;;6.40;5.97;;;26.90;47.70;;;;;;5009864;28;20399;-84
2022/07/03 09:12:38;;;;;;;7.70;6.38;;;27.10;45.40;;;;;;5013320;28;20173;-85
2022/07/03 09:15:06;;;;;;;6.63;6.13;;;27.20;46.70;;;;;;5019791;28;20227;-84
2022/07/03 09:17:32;;;;;;;6.38;6.05;;;27.20;45.90;;;;;;5010923;28;20197;-83
2022/07/03 09:20:00;;;;;;;6.13;5.63;;;27.00;46.70;;;;;;5008343;28;20194;-83
2022/07/03 09:22:28;;;;;;;6.32;5.80;;;27.10;46.10;;;;;;5005999;28;20186;-84
2022/07/03 09:25:09;;;;;;;6.38;5.90;;;27.30;45.50;;;;;;5016718;28;20220;-84
2022/07/03 09:27:37;;;;;;;6.32;5.82;;;27.40;46.60;;;;;;5013231;28;20201;-85
2022/07/03 09:30:08;;;;;;;6.40;5.93;;;27.60;45.40;;;;;;5019055;28;20177;-84
2022/07/03 09:32:36;;;;;;;6.57;6.18;;;27.70;45.80;;;;;;5012202;28;20192;-84
2022/07/03 09:35:22;;;;;;;6.45;6.10;;;27.70;46.10;;;;;;5013112;28;20259;-85
2022/07/03 09:37:59;;;;;;;6.40;6.00;;;27.70;43.70;;;;;;5009588;28;20209;-85
2022/07/03 09:40:27;;;;;;;7.13;6.60;;;27.90;42.70;;;;;;5008225;28;20683;-84
2022/07/03 09:43:07;;;;;;;6.25;5.75;;;28.10;44.60;;;;;;5007446;28;20267;-84
2022/07/03 09:46:08;;;;;;;7.15;6.60;;;28.30;44.20;;;;;;5010688;28;20185;-84
2022/07/03 09:48:41;;;;;;;6.18;5.50;;;28.30;40.70;;;;;;4936655;29;20307;-84
2022/07/03 09:51:23;;;;;;;6.32;5.75;;;28.30;43.50;;;;;;4999048;28;20264;-84
2022/07/03 09:53:52;;;;;;;6.65;6.35;;;28.20;45.10;;;;;;5011067;28;20201;-84
2022/07/03 09:56:19;;;;;;;6.40;6.00;;;28.20;43.00;;;;;;5016944;28;20260;-84
2022/07/03 09:59:00;;;;;;;5.68;5.18;;;28.40;41.30;;;;;;5013417;28;20182;-85
2022/07/03 10:01:29;;;;;;;3.83;3.53;;;28.60;40.70;;;;;;5017374;28;20185;-85
2022/07/03 10:04:07;;;;;;;4.20;4.00;;;28.70;36.60;;;;;;5020035;28;20217;-85
2022/07/03 10:06:46;;;;;;;4.70;4.30;;;28.90;38.60;;;;;;5015995;28;20210;-85
2022/07/03 10:09:17;;;;;;;4.63;4.32;;;29.20;38.90;;;;;;5018290;28;20575;-84
2022/07/03 10:11:46;;;;;;;5.03;4.72;;;29.50;38.80;;;;;;5010159;28;20191;-85
2022/07/03 10:14:18;;;;;;;4.70;4.50;;;29.00;38.50;;;;;;5014824;28;20234;-85
2022/07/03 10:16:44;;;;;;;6.10;5.70;;;29.00;37.50;;;;;;5014550;28;20305;-83
2022/07/03 10:19:22;;;;;;;6.35;6.05;;;29.30;37.50;;;;;;5014004;28;20247;-84
2022/07/03 10:21:52;;;;;;;5.90;5.70;;;29.20;38.80;;;;;;5016985;28;20189;-84
2022/07/03 10:24:20;;;;;;;5.32;5.10;;;29.20;39.00;;;;;;5016086;28;20312;-84
2022/07/03 10:26:47;;;;;;;5.93;5.72;;;29.20;38.10;;;;;;5009173;28;20229;-84
2022/07/03 10:29:15;;;;;;;6.43;6.13;;;29.60;36.90;;;;;;5006104;28;20178;-84
2022/07/03 10:31:48;;;;;;;5.55;5.25;;;29.60;36.50;;;;;;5015334;28;20446;-84
2022/07/03 10:34:20;;;;;;;5.72;5.43;;;29.70;35.00;;;;;;4992617;28;20240;-85
2022/07/03 10:36:48;;;;;;;5.72;5.50;;;29.90;35.70;;;;;;5020405;28;20192;-84
2022/07/03 10:39:27;;;;;;;5.43;5.10;;;30.10;35.20;;;;;;5019053;28;20192;-85
2022/07/03 10:45:12;;;;;;;6.05;5.75;;;30.00;35.70;;;;;;5014510;28;20221;-85
2022/07/03 10:47:38;;;;;;;6.15;5.88;;;30.10;34.50;;;;;;4993972;28;20701;-84
2022/07/03 10:50:12;;;;;;;6.13;5.82;;;30.20;35.60;;;;;;5011849;28;20185;-85
2022/07/03 10:52:39;;;;;;;6.10;5.70;;;30.50;35.50;;;;;;5013561;28;20241;-84
2022/07/03 10:55:06;;;;;;;5.72;5.50;;;30.70;34.60;;;;;;5018812;28;20185;-85
2022/07/03 10:57:33;;;;;;;6.07;5.78;;;30.80;33.10;;;;;;5021075;28;20192;-84
2022/07/03 11:00:00;;;;;;;6.13;5.82;;;31.10;34.00;;;;;;5016520;28;20200;-86
2022/07/03 11:02:36;;;;;;;5.13;4.82;;;31.10;33.20;;;;;;5015076;28;20213;-85
2022/07/03 11:05:02;;;;;;;5.30;5.03;;;30.70;31.90;;;;;;5015186;28;20288;-84
2022/07/03 11:07:55;;;;;;;5.07;4.88;;;30.80;33.50;;;;;;5019583;28;20198;-85
2022/07/03 11:10:23;;;;;;;5.55;5.25;;;30.70;33.70;;;;;;5018477;28;20178;-84
2022/07/03 11:13:06;;;;;;;5.53;5.13;;;30.80;33.50;;;;;;5038703;28;20315;-83
2022/07/03 11:15:37;;;;;;;4.90;4.57;;;31.40;33.00;;;;;;5029203;28;20202;-84
2022/07/03 11:18:07;;;;;;;4.90;4.70;;;31.70;32.80;;;;;;5004703;28;20196;-85
2022/07/03 11:20:39;;;;;;;5.05;4.65;;;31.90;32.80;;;;;;5020244;28;20189;-86
2022/07/03 11:23:26;;;;;;;5.20;4.90;;;32.10;31.50;;;;;;5012428;28;20213;-86
2022/07/03 11:25:59;;;;;;;5.20;4.80;;;32.20;32.10;;;;;;5016120;28;20181;-83
2022/07/03 11:28:45;;;;;;;5.85;5.45;;;32.40;31.60;;;;;;5009909;28;20206;-84
2022/07/03 11:31:13;;;;;;;6.57;6.28;;;32.40;31.00;;;;;;5004260;28;20204;-85
2022/07/03 11:33:51;;;;;;;6.10;5.75;;;32.10;31.30;;;;;;5011268;28;20193;-85
2022/07/03 11:36:17;;;;;;;6.93;6.53;;;32.20;30.70;;;;;;5013882;28;20260;-85
2022/07/03 11:38:55;;;;;;;7.25;6.78;;;32.30;30.90;;;;;;5016681;28;20186;-85
2022/07/03 11:41:22;;;;;;;7.75;7.45;;;32.60;30.80;;;;;;5018279;28;20186;-85
2022/07/03 11:43:49;;;;;;;7.32;7.03;;;32.70;29.20;;;;;;5012647;28;20597;-85
2022/07/03 11:46:20;;;;;;;8.07;7.78;;;32.60;29.90;;;;;;5015564;28;20190;-86
2022/07/03 11:48:46;;;;;;;8.20;7.80;;;32.60;30.50;;;;;;4996932;28;20193;-84
2022/07/03 11:51:16;;;;;;;7.78;7.43;;;32.50;30.60;;;;;;5015300;28;20173;-84
2022/07/03 11:53:41;;;;;;;7.70;7.30;;;32.30;30.00;;;;;;5013443;28;20233;-85
2022/07/03 11:56:08;;;;;;;8.73;8.30;;;32.50;31.90;;;;;;5018075;28;20553;-85
2022/07/03 11:58:52;;;;;;;9.27;8.80;;;32.90;30.00;;;;;;5015740;28;20186;-84
2022/07/03 12:01:26;;;;;;;9.20;8.85;;;33.10;30.50;;;;;;5018264;28;20409;-86
2022/07/03 12:04:16;;;;;;;9.32;8.90;;;33.10;31.10;;;;;;5028143;28;20260;-85
2022/07/03 12:06:51;;;;;;;9.10;8.70;;;33.10;29.20;;;;;;5011387;28;20206;-85
2022/07/03 12:09:34;;;;;;;9.38;9.05;;;32.80;29.90;;;;;;5011433;28;20228;-86
2022/07/03 12:12:10;;;;;;;9.80;9.50;;;32.90;29.50;;;;;;5007055;28;20189;-85
2022/07/03 12:14:39;;;;;;;8.65;8.25;;;32.90;29.80;;;;;;5015334;28;20232;-85
2022/07/03 12:17:06;;;;;;;8.52;8.23;;;32.90;30.40;;;;;;5015639;28;20184;-86
2022/07/03 12:19:32;;;;;;;9.85;9.48;;;32.90;30.10;;;;;;5012209;28;20264;-85
2022/07/03 12:21:57;;;;;;;9.13;8.75;;;33.20;30.80;;;;;;5012258;28;20194;-86
2022/07/03 12:24:23;;;;;;;9.93;9.52;;;33.30;29.50;;;;;;5010708;28;20217;-84
2022/07/03 12:26:49;;;;;;;11.05;10.65;;;33.80;29.10;;;;;;5015388;28;20674;-84
2022/07/03 12:29:16;;;;;;;12.00;11.50;;;34.10;29.50;;;;;;5012230;28;20543;-85
2022/07/03 12:31:46;;;;;;;11.95;11.55;;;34.40;29.30;;;;;;5012619;28;20189;-86
2022/07/03 12:34:14;;;;;;;12.55;12.15;;;34.60;29.20;;;;;;4992520;28;20221;-84
2022/07/03 12:36:40;;;;;;;13.52;13.02;;;34.60;29.10;;;;;;5015055;28;20299;-85
2022/07/03 12:39:06;;;;;;;14.38;13.77;;;35.10;29.30;;;;;;5018648;28;20192;-85
2022/07/03 12:41:32;;;;;;;15.20;14.60;;;34.70;28.70;;;;;;5014965;28;20205;-84
2022/07/03 12:43:59;;;;;;;15.43;14.73;;;35.00;28.80;;;;;;5012915;28;20239;-85
2022/07/03 12:46:26;;;;;;;16.23;15.52;;;34.90;29.00;;;;;;5010990;28;20200;-86
2022/07/03 12:48:53;;;;;;;16.00;15.40;;;35.30;29.00;;;;;;4995080;28;20634;-85
2022/07/03 12:51:46;;;;;;;15.88;15.30;;;35.50;27.80;;;;;;5009272;28;20202;-85
2022/07/03 12:54:22;;;;;;;15.45;14.70;;;35.60;27.30;;;;;;5012154;28;20217;-85
2022/07/03 13:00:11;;;;;;;15.73;14.95;;;35.90;28.10;;;;;;5018730;28;20611;-85
2022/07/03 13:02:39;;;;;;;16.10;15.52;;;35.10;30.10;;;;;;5012514;28;20193;-85
2022/07/03 13:05:24;;;;;;;16.08;15.57;;;34.80;29.30;;;;;;5013041;28;20272;-85
2022/07/03 13:07:52;;;;;;;12.57;12.07;;;34.70;28.30;;;;;;5011468;28;20203;-84
2022/07/03 13:10:20;;;;;;;14.18;13.70;;;34.70;28.40;;;;;;5011937;28;20186;-85
2022/07/03 13:12:46;;;;;;;15.23;14.52;;;35.10;28.40;;;;;;5011035;28;20182;-85
2022/07/03 13:15:13;;;;;;;16.38;15.73;;;35.70;28.90;;;;;;5014232;28;20268;-85